createdAt,value
2019-02-07T00:03:02.786Z,98371.55
2019-02-07T00:07:08.474Z,98374.94
2019-02-07T00:11:20.007Z,98353.90
2019-02-07T00:15:25.764Z,98348.77
2019-02-07T00:19:31.759Z,98346.30
2019-02-07T00:23:37.824Z,98348.32
2019-02-07T00:27:43.534Z,98342.89
2019-02-07T00:31:49.531Z,98337.92
2019-02-07T00:35:55.196Z,98332.75
2019-02-07T00:40:01.264Z,98339.55
2019-02-07T00:44:07.096Z,98337.70
2019-02-07T00:48:12.871Z,98322.63
2019-02-07T00:52:18.612Z,98326.05
2019-02-07T00:56:24.326Z,98326.65
2019-02-07T01:00:31.996Z,98329.48
2019-02-07T01:04:37.859Z,98331.00
2019-02-07T01:08:43.840Z,98321.08
2019-02-07T01:12:49.574Z,98318.62
2019-02-07T01:16:55.257Z,98313.17
2019-02-07T01:21:00.946Z,98310.67
2019-02-07T01:25:12.383Z,98307.97
2019-02-07T01:29:18.140Z,98302.26
2019-02-07T01:33:23.845Z,98307.02
2019-02-07T01:37:29.518Z,98306.33
2019-02-07T01:41:35.196Z,98312.59
2019-02-07T01:45:40.895Z,98304.25
2019-02-07T01:49:46.641Z,98300.52
2019-02-07T01:53:52.304Z,98286.86
2019-02-07T01:57:58.060Z,98280.73
2019-02-07T02:02:05.208Z,98274.95
2019-02-07T02:06:12.040Z,98268.80
2019-02-07T02:10:29.993Z,98270.72
2019-02-07T02:14:35.733Z,98266.08
2019-02-07T02:18:41.414Z,98263.73
2019-02-07T02:22:47.408Z,98259.50
2019-02-07T02:26:53.102Z,98252.22
2019-02-07T02:30:59.916Z,98245.97
2019-02-07T02:35:08.324Z,98248.91
2019-02-07T02:39:14.357Z,98240.59
2019-02-07T02:43:20.278Z,98244.25
2019-02-07T02:47:26.032Z,98240.55
2019-02-07T02:51:31.700Z,98243.56
2019-02-07T02:55:39.253Z,98243.56
2019-02-07T02:59:45.011Z,98224.80
2019-02-07T03:03:52.497Z,98206.72
2019-02-07T03:08:12.388Z,98205.73
2019-02-07T03:12:19.737Z,98205.26
2019-02-07T03:16:36.024Z,98212.17
2019-02-07T03:20:58.909Z,98200.21
2019-02-07T03:25:12.139Z,98185.02
2019-02-07T03:29:26.669Z,98173.47
2019-02-07T03:33:34.004Z,98171.50
2019-02-07T03:37:50.473Z,98175.05
2019-02-07T03:42:06.469Z,98163.11
2019-02-07T03:46:20.051Z,98156.48
2019-02-07T03:50:43.945Z,98157.63
2019-02-07T03:54:51.253Z,98141.75
2019-02-07T03:59:04.659Z,98146.23
2019-02-07T04:03:12.043Z,98152.67
2019-02-07T04:07:35.106Z,98165.61
2019-02-07T04:11:58.755Z,98164.13
2019-02-07T04:16:24.330Z,98159.35
2019-02-07T04:20:37.603Z,98139.48
2019-02-07T04:24:49.117Z,98133.45
2019-02-07T04:28:56.468Z,98128.20
2019-02-07T04:33:12.722Z,98132.19
2019-02-07T04:37:22.996Z,98119.06
2019-02-07T04:41:42.166Z,98117.95
2019-02-07T04:45:49.564Z,98111.63
2019-02-07T04:49:57.009Z,98117.48
2019-02-07T04:54:04.329Z,98120.60
2019-02-07T04:58:11.852Z,98109.41
2019-02-07T05:02:31.477Z,98115.77
2019-02-07T05:06:55.048Z,98110.85
2019-02-07T05:11:18.571Z,98102.42
2019-02-07T05:15:41.402Z,98097.73
2019-02-07T05:19:48.800Z,98101.02
2019-02-07T05:23:58.890Z,98093.86
2019-02-07T05:28:04.474Z,98103.42
2019-02-07T05:32:11.884Z,98096.89
2019-02-07T05:36:22.141Z,98096.74
2019-02-07T05:40:45.666Z,98082.18
2019-02-07T05:45:01.968Z,98080.39
2019-02-07T05:49:15.123Z,98090.67
2019-02-07T05:53:38.886Z,98098.76
2019-02-07T05:57:48.637Z,98091.45
2019-02-07T06:01:55.954Z,98088.73
2019-02-07T06:06:05.992Z,98085.55
2019-02-07T06:10:33.052Z,98083.64
2019-02-07T06:14:49.094Z,98071.00
2019-02-07T06:18:56.415Z,98067.21
2019-02-07T06:23:12.507Z,98067.05
2019-02-07T06:27:33.020Z,98062.97
2019-02-07T06:31:51.957Z,98061.85
2019-02-07T06:36:05.225Z,98060.34
2019-02-07T06:40:14.349Z,98061.33
2019-02-07T06:44:21.685Z,98054.64
2019-02-07T06:48:31.974Z,98062.09
2019-02-07T06:52:42.289Z,98055.72
2019-02-07T06:57:05.869Z,98049.83
2019-02-07T07:01:25.148Z,98041.17
2019-02-07T07:05:48.131Z,98043.88
2019-02-07T07:10:01.124Z,98045.72
2019-02-07T07:14:23.816Z,98048.27
2019-02-07T07:18:46.287Z,98041.39
2019-02-07T07:23:07.062Z,98028.69
2019-02-07T07:27:30.546Z,98031.40
2019-02-07T07:31:37.920Z,98028.11
2019-02-07T07:35:45.410Z,98028.71
2019-02-07T07:40:01.747Z,98025.98
2019-02-07T07:44:09.142Z,98020.62
2019-02-07T07:48:31.199Z,98013.47
2019-02-07T07:52:38.728Z,98010.03
2019-02-07T07:56:51.972Z,98008.67
2019-02-07T08:01:15.572Z,98003.28
2019-02-07T08:05:38.990Z,98004.83
2019-02-07T08:09:50.452Z,97991.14
2019-02-07T08:13:57.771Z,97980.39
2019-02-07T08:18:03.306Z,97997.72
2019-02-07T08:22:26.841Z,97994.22
2019-02-07T08:26:32.247Z,97992.52
2019-02-07T08:30:42.967Z,97989.25
2019-02-07T08:34:53.037Z,97985.19
2019-02-07T08:39:02.809Z,97978.23
2019-02-07T08:43:15.937Z,97980.33
2019-02-07T08:47:21.386Z,97981.85
2019-02-07T08:51:32.639Z,97985.12
2019-02-07T08:55:55.934Z,97983.23
2019-02-07T09:00:01.538Z,97981.17
2019-02-07T09:04:14.698Z,97978.86
2019-02-07T09:08:22.333Z,97978.27
2019-02-07T09:12:41.447Z,97971.74
2019-02-07T09:16:54.644Z,97965.94
2019-02-07T09:21:00.102Z,97963.05
2019-02-07T09:25:15.713Z,97950.11
2019-02-07T09:29:39.278Z,97944.88
2019-02-07T09:34:02.790Z,97941.97
2019-02-07T09:38:13.833Z,97933.43
2019-02-07T09:42:24.500Z,97936.63
2019-02-07T09:46:50.012Z,97937.53
2019-02-07T09:51:03.305Z,97932.23
2019-02-07T09:55:29.431Z,97935.16
2019-02-07T09:59:36.806Z,97938.04
2019-02-07T10:03:45.053Z,97939.16
2019-02-07T10:07:55.425Z,97937.45
2019-02-07T10:12:03.018Z,97936.18
2019-02-07T10:16:10.471Z,97940.42
2019-02-07T10:20:22.146Z,97935.84
2019-02-07T10:24:45.544Z,97938.11
2019-02-07T10:29:09.044Z,97941.80
2019-02-07T10:33:22.335Z,97943.48
2019-02-07T10:37:46.283Z,97934.06
2019-02-07T10:42:08.509Z,97935.45
2019-02-07T10:46:31.619Z,97931.97
2019-02-07T10:50:44.449Z,97932.61
2019-02-07T10:55:08.257Z,97926.91
2019-02-07T10:59:13.985Z,97923.37
2019-02-07T11:09:07.226Z,97921.42
2019-02-07T11:13:31.012Z,97917.78
2019-02-07T11:17:44.306Z,97913.80
2019-02-07T11:21:51.826Z,97914.94
2019-02-07T11:26:15.456Z,97908.27
2019-02-07T11:30:35.316Z,97902.62
2019-02-07T11:34:42.715Z,97906.18
2019-02-07T11:38:57.058Z,97901.65
2019-02-07T11:43:13.364Z,97900.05
2019-02-07T11:47:26.679Z,97890.17
2019-02-07T11:51:36.504Z,97894.36
2019-02-07T11:55:43.894Z,97892.50
2019-02-07T12:00:00.241Z,97890.47
2019-02-07T12:04:20.333Z,97884.19
2019-02-07T12:08:42.732Z,97882.01
2019-02-07T12:13:05.690Z,97886.04
2019-02-07T12:17:18.948Z,97886.64
2019-02-07T12:21:35.239Z,97875.94
2019-02-07T12:25:50.413Z,97870.39
2019-02-07T12:30:15.598Z,97863.01
2019-02-07T12:34:26.033Z,97860.77
2019-02-07T12:38:40.864Z,97870.10
2019-02-07T12:42:52.315Z,97868.06
2019-02-07T12:47:00.679Z,97878.31
2019-02-07T12:51:24.409Z,97868.93
2019-02-07T12:55:52.361Z,97873.66
2019-02-07T12:59:57.117Z,97874.75
2019-02-07T13:04:16.546Z,97867.83
2019-02-07T13:08:23.926Z,97858.16
2019-02-07T13:12:38.234Z,97860.45
2019-02-07T13:16:52.486Z,97855.54
2019-02-07T13:21:14.892Z,97848.74
2019-02-07T13:25:31.464Z,97858.25
2019-02-07T13:29:54.970Z,97856.27
2019-02-07T13:34:18.444Z,97849.28
2019-02-07T13:38:28.523Z,97845.67
2019-02-07T13:42:36.649Z,97844.97
2019-02-07T13:46:49.412Z,97847.62
2019-02-07T13:50:59.461Z,97840.02
2019-02-07T13:55:11.173Z,97844.06
2019-02-07T13:59:21.177Z,97847.18
2019-02-07T14:03:44.707Z,97858.55
2019-02-07T14:07:52.105Z,97854.03
2019-02-07T14:11:59.424Z,97859.23
2019-02-07T14:16:09.790Z,97855.99
2019-02-07T14:20:24.195Z,97866.98
2019-02-07T14:24:32.336Z,97865.92
2019-02-07T14:28:40.775Z,97875.02
2019-02-07T14:32:51.077Z,97883.82
2019-02-07T14:37:01.302Z,97884.70
2019-02-07T14:41:08.712Z,97874.23
2019-02-07T14:45:22.534Z,97879.93
2019-02-07T14:49:28.209Z,97891.66
2019-02-07T14:53:53.511Z,97891.41
2019-02-07T14:57:59.211Z,97901.34
2019-02-07T15:02:24.237Z,97913.19
2019-02-07T15:06:30.035Z,97914.12
2019-02-07T15:10:35.792Z,97920.33
2019-02-07T15:14:41.539Z,97925.45
2019-02-07T15:18:47.309Z,97931.41
2019-02-07T15:22:54.794Z,97926.28
2019-02-07T15:27:00.485Z,97939.55
2019-02-07T15:31:06.509Z,97936.33
2019-02-07T15:35:28.517Z,97944.52
2019-02-07T15:39:49.634Z,97945.52
2019-02-07T15:43:55.488Z,97952.34
2019-02-07T15:48:01.168Z,97949.48
2019-02-07T15:52:26.256Z,97946.27
2019-02-07T15:56:31.961Z,97950.50
2019-02-07T16:00:54.250Z,97947.32
2019-02-07T16:05:18.005Z,97954.50
2019-02-07T16:10:18.045Z,97954.03
2019-02-07T16:14:23.874Z,97944.53
2019-02-07T16:19:17.716Z,97958.66
2019-02-07T16:23:23.533Z,97964.88
2019-02-07T16:27:29.217Z,97969.17
2019-02-07T16:31:34.955Z,97969.39
2019-02-07T16:36:17.046Z,97964.30
2019-02-07T16:40:23.736Z,97963.38
2019-02-07T16:49:19.685Z,97972.22
2019-02-07T16:53:25.406Z,97982.09
2019-02-07T16:57:31.385Z,97974.78
2019-02-07T17:02:17.294Z,97983.21
2019-02-07T17:06:23.094Z,97991.18
2019-02-07T17:10:41.832Z,97991.03
2019-02-07T17:15:18.795Z,97982.75
2019-02-07T17:19:24.554Z,97989.00
2019-02-07T17:23:30.995Z,97998.11
2019-02-07T17:27:36.702Z,98008.19
2019-02-07T17:31:42.432Z,98017.00
2019-02-07T17:35:50.014Z,98023.44
2019-02-07T17:40:27.465Z,98031.88
2019-02-07T17:44:33.816Z,98026.28
2019-02-07T17:48:39.674Z,98044.39
2019-02-07T17:52:45.376Z,98040.72
2019-02-07T17:56:51.158Z,98047.13
2019-02-07T18:01:18.032Z,98049.79
2019-02-07T18:05:23.850Z,98055.67
2019-02-07T18:09:29.543Z,98068.52
2019-02-07T18:13:35.832Z,98073.88
2019-02-07T18:17:41.510Z,98073.28
2019-02-07T18:21:47.267Z,98069.70
2019-02-07T18:30:23.196Z,98078.81
2019-02-07T18:34:29.027Z,98078.31
2019-02-07T18:38:34.706Z,98092.94
2019-02-07T18:42:40.413Z,98101.68
2019-02-07T18:46:46.129Z,98113.88
2019-02-07T18:50:51.820Z,98126.34
2019-02-07T18:54:57.524Z,98126.77
2019-02-07T18:59:18.335Z,98135.48
2019-02-07T19:08:17.856Z,98147.20
2019-02-07T19:12:23.657Z,98150.96
2019-02-07T19:16:29.378Z,98165.21
2019-02-07T19:20:35.049Z,98172.16
2019-02-07T19:24:40.743Z,98179.14
2019-02-07T19:28:46.427Z,98175.07
2019-02-07T19:32:53.099Z,98172.91
2019-02-07T19:36:58.867Z,98176.97
2019-02-07T19:41:05.032Z,98179.69
2019-02-07T19:45:14.971Z,98189.82
2019-02-07T19:49:21.183Z,98189.88
2019-02-07T19:53:26.946Z,98184.16
2019-02-07T19:57:32.644Z,98196.83
2019-02-07T20:01:57.732Z,98194.19
2019-02-07T20:06:03.475Z,98200.67
2019-02-07T20:10:19.019Z,98206.49
2019-02-07T20:14:24.752Z,98207.72
2019-02-07T20:18:30.438Z,98205.81
2019-02-07T20:23:18.671Z,98213.48
2019-02-07T20:27:24.382Z,98212.81
2019-02-07T20:32:18.260Z,98207.88
2019-02-07T20:36:23.994Z,98215.08
2019-02-07T20:41:17.462Z,98216.51
2019-02-07T20:45:23.746Z,98216.55
2019-02-07T20:50:18.787Z,98217.66
2019-02-07T20:54:24.557Z,98220.64
2019-02-07T20:59:18.703Z,98227.59
2019-02-07T21:04:16.627Z,98228.72
2019-02-07T21:08:22.308Z,98241.48
2019-02-07T21:12:28.250Z,98246.92
2019-02-07T21:17:18.849Z,98254.46
2019-02-07T21:21:24.536Z,98255.23
2019-02-07T21:26:16.268Z,98272.55
2019-02-07T21:30:29.170Z,98276.61
2019-02-07T21:35:17.949Z,98282.80
2019-02-07T21:39:23.611Z,98278.34
2019-02-07T21:44:17.347Z,98290.72
2019-02-07T21:48:23.024Z,98289.16
2019-02-07T21:52:28.716Z,98296.64
2019-02-07T21:56:34.445Z,98300.68
2019-02-07T22:00:46.092Z,98295.65
2019-02-07T22:09:18.936Z,98307.13
2019-02-07T22:13:24.641Z,98316.77
2019-02-07T22:17:30.336Z,98323.52
2019-02-07T22:21:36.926Z,98334.13
2019-02-07T22:25:42.626Z,98341.45
2019-02-07T22:29:48.580Z,98348.02
2019-02-07T22:34:18.187Z,98352.46
2019-02-07T22:38:23.952Z,98363.66
2019-02-07T22:42:29.821Z,98359.61
2019-02-07T22:46:35.516Z,98367.50
2019-02-07T22:50:41.179Z,98372.72
2019-02-07T22:54:46.865Z,98380.82
2019-02-07T22:59:19.550Z,98389.88
2019-02-07T23:03:25.226Z,98392.91
2019-02-07T23:07:30.934Z,98389.44
2019-02-07T23:11:56.055Z,98388.67
2019-02-07T23:16:20.099Z,98391.55
2019-02-07T23:20:26.140Z,98393.48
2019-02-07T23:24:32.161Z,98394.48
2019-02-07T23:28:37.995Z,98383.09
2019-02-07T23:32:43.925Z,98390.42
2019-02-07T23:36:50.647Z,98391.59
2019-02-07T23:41:19.775Z,98392.76
2019-02-07T23:45:25.879Z,98390.06
2019-02-07T23:49:31.629Z,98381.58
2019-02-07T23:53:37.413Z,98386.80
2019-02-07T23:57:43.420Z,98385.23
